Terminal Aerodrome Forecast
Issued by NWS Nashville, TN

Home | Current Version | Previous Version | Text Only | Print | Product List | Glossary On
Versions: 1 2 3 4 5 6 7 8 9 10 11 12 13 14 15 16 17 18 19 20 21
000
FTUS44 KOHX 261700
TAFCSV
TAF
KCSV 261720Z 2618/2718 20009KT P6SM -SHRA OVC025
     FM262100 25010G20KT 5SM -RA BR OVC015
     FM262300 28010G18KT 2SM -RA BR OVC007
     FM270200 36010KT 4SM -RA BR OVC004
     FM270700 35010KT P6SM OVC007
     FM271500 36009KT P6SM OVC015=

USA.gov is the U.S. government's official web portal to all federal, state and local government web resources and services.